Wilson Heron — 9HJW9 — position and weather

sailwx.info

Track history (hours):
 
Tides and Currents Weather Stations Pressure Air Temp Water Temp Dewpoint Dewpoint Depression Visibility Wind Speed Wind Dir Waves Ship Positions

Wilson Heron

Last reported at 2015-Mar-28 19:11 UTC. Time now 2015-Apr-02 09:44 UTC.
Position N 36°46' W 006°27'.

Length 91 m; draft 5.9 m.

Type: Ship (hazmat cat A). MMSI: 249075000.

Date/timePositionNaut miles runAvg speedWind from/ knotsBaromVisibWave heightAir tempDewpointWater temp
2015-Mar-28 19:11N 36°46' W 006°27'183 5.4
2015-Mar-27 09:04N 37°59' W 009°58'2810.6
2015-Mar-27 06:24N 38°27' W 010°06'  
2015-Mar-23 15:27N 50°22' W 000°49'3411.1
2015-Mar-23 12:24N 50°32' E 000°01'7 8.5
2015-Mar-23 11:33N 50°34' E 000°12'8 7.6
2015-Mar-23 10:33N 50°36' E 000°24'8 8.2
2015-Mar-23 09:33N 50°39' E 000°36'1010.4
2015-Mar-23 08:34N 50°45' E 000°49'1212.0
2015-Mar-23 07:31N 50°52' E 001°05'1212.4
2015-Mar-23 06:34N 50°60' E 001°19'1110.9
2015-Mar-23 05:33N 51°07' E 001°33'9 9.1
2015-Mar-23 04:33N 51°13' E 001°44'8 8.3
2015-Mar-23 03:33N 51°19' E 001°51'8 8.2
2015-Mar-23 02:33N 51°26' E 001°58'9 9.3
2015-Mar-23 01:34N 51°34' E 002°06'1110.5
2015-Mar-23 00:32N 51°44' E 002°12'1311.8
2015-Mar-22 23:25N 51°57' E 002°19'1112.7
2015-Mar-22 22:31N 52°08' E 002°16'1313.0
2015-Mar-22 21:33N 52°21' E 002°13'1313.1
2015-Mar-22 20:34N 52°33' E 002°10'1413.3
2015-Mar-22 19:32N 52°47' E 002°06'1212.2
2015-Mar-22 18:33N 52°56' E 001°53'1111.3
2015-Mar-22 17:33N 53°03' E 001°38'1010.3
2015-Mar-22 16:33N 53°10' E 001°26'41 9.0
2015-Mar-22 12:03N 53°43' E 000°45'4 8.3
2015-Mar-22 11:33N 53°46' E 000°41'9 8.8
2015-Mar-22 10:33N 53°53' E 000°33'10 9.7
2015-Mar-22 09:33N 54°01' E 000°23'1010.2
2015-Mar-22 08:33N 54°10' E 000°13'1111.0
2015-Mar-22 07:33N 54°18' E 000°01'1111.4
2015-Mar-22 06:33N 54°25' W 000°14'1211.9
2015-Mar-22 05:33N 54°33' W 000°30'27 0.7
2015-Mar-20 16:16N 54°35' W 001°15'0 0.0
2015-Mar-20 15:19N 54°35' W 001°15'0 0.0
2015-Mar-20 14:31N 54°35' W 001°15'0 0.0
2015-Mar-20 13:16N 54°35' W 001°15'0 0.0
2015-Mar-20 11:16N 54°35' W 001°15'0 0.0
2015-Mar-20 09:07N 54°35' W 001°15'0 0.0
2015-Mar-20 08:10N 54°35' W 001°15'0 0.0
2015-Mar-20 07:22N 54°35' W 001°15'0 0.0
2015-Mar-19 17:07N 54°35' W 001°15'0 0.0
2015-Mar-19 16:10N 54°35' W 001°15'0 0.0
2015-Mar-19 15:25N 54°35' W 001°15'0 0.0
2015-Mar-19 14:30N 54°35' W 001°15'0 0.0
2015-Mar-19 13:28N 54°35' W 001°15'0 0.0
2015-Mar-19 09:13N 54°35' W 001°15'0 0.0
2015-Mar-19 08:31N 54°35' W 001°15'0 0.0
2015-Mar-19 07:16N 54°35' W 001°15'9 5.3
2015-Mar-19 05:33N 54°44' W 001°09'2 0.4
2015-Mar-19 00:33N 54°42' W 001°07'2 1.8
2015-Mar-18 23:32N 54°44' W 001°08'0 0.0
2015-Mar-18 22:32N 54°44' W 001°08'0 0.0
2015-Mar-18 21:32N 54°44' W 001°09'0 0.0
2015-Mar-18 20:32N 54°44' W 001°09'0 0.0
2015-Mar-18 19:32N 54°44' W 001°09'  
Track history (hours):
 
Tides and Currents Weather Stations Pressure Air Temp Water Temp Dewpoint Dewpoint Depression Visibility Wind Speed Wind Dir Waves Ship Positions

Wilson Heron

Last reported at 2015-Mar-28 19:11 UTC. Time now 2015-Apr-02 09:44 UTC.
Position N 36°46' W 006°27'.

Length 91 m; draft 5.9 m.

Type: Ship (hazmat cat A). MMSI: 249075000.

Date/timePositionNaut miles runAvg speedWind from/ knotsBaromVisibWave heightAir tempDewpointWater temp
2015-Mar-28 19:11N 36°46' W 006°27'183 5.4
2015-Mar-27 09:04N 37°59' W 009°58'2810.6
2015-Mar-27 06:24N 38°27' W 010°06'  
2015-Mar-23 15:27N 50°22' W 000°49'3411.1
2015-Mar-23 12:24N 50°32' E 000°01'7 8.5
2015-Mar-23 11:33N 50°34' E 000°12'8 7.6
2015-Mar-23 10:33N 50°36' E 000°24'8 8.2
2015-Mar-23 09:33N 50°39' E 000°36'1010.4
2015-Mar-23 08:34N 50°45' E 000°49'1212.0
2015-Mar-23 07:31N 50°52' E 001°05'1212.4
2015-Mar-23 06:34N 50°60' E 001°19'1110.9
2015-Mar-23 05:33N 51°07' E 001°33'9 9.1
2015-Mar-23 04:33N 51°13' E 001°44'8 8.3
2015-Mar-23 03:33N 51°19' E 001°51'8 8.2
2015-Mar-23 02:33N 51°26' E 001°58'9 9.3
2015-Mar-23 01:34N 51°34' E 002°06'1110.5
2015-Mar-23 00:32N 51°44' E 002°12'1311.8
2015-Mar-22 23:25N 51°57' E 002°19'1112.7
2015-Mar-22 22:31N 52°08' E 002°16'1313.0
2015-Mar-22 21:33N 52°21' E 002°13'1313.1
2015-Mar-22 20:34N 52°33' E 002°10'1413.3
2015-Mar-22 19:32N 52°47' E 002°06'1212.2
2015-Mar-22 18:33N 52°56' E 001°53'1111.3
2015-Mar-22 17:33N 53°03' E 001°38'1010.3
2015-Mar-22 16:33N 53°10' E 001°26'41 9.0
2015-Mar-22 12:03N 53°43' E 000°45'4 8.3
2015-Mar-22 11:33N 53°46' E 000°41'9 8.8
2015-Mar-22 10:33N 53°53' E 000°33'10 9.7
2015-Mar-22 09:33N 54°01' E 000°23'1010.2
2015-Mar-22 08:33N 54°10' E 000°13'1111.0
2015-Mar-22 07:33N 54°18' E 000°01'1111.4
2015-Mar-22 06:33N 54°25' W 000°14'1211.9
2015-Mar-22 05:33N 54°33' W 000°30'27 0.7
2015-Mar-20 16:16N 54°35' W 001°15'0 0.0
2015-Mar-20 15:19N 54°35' W 001°15'0 0.0
2015-Mar-20 14:31N 54°35' W 001°15'0 0.0
2015-Mar-20 13:16N 54°35' W 001°15'0 0.0
2015-Mar-20 11:16N 54°35' W 001°15'0 0.0
2015-Mar-20 09:07N 54°35' W 001°15'0 0.0
2015-Mar-20 08:10N 54°35' W 001°15'0 0.0
2015-Mar-20 07:22N 54°35' W 001°15'0 0.0
2015-Mar-19 17:07N 54°35' W 001°15'0 0.0
2015-Mar-19 16:10N 54°35' W 001°15'0 0.0
2015-Mar-19 15:25N 54°35' W 001°15'0 0.0
2015-Mar-19 14:30N 54°35' W 001°15'0 0.0
2015-Mar-19 13:28N 54°35' W 001°15'0 0.0
2015-Mar-19 09:13N 54°35' W 001°15'0 0.0
2015-Mar-19 08:31N 54°35' W 001°15'0 0.0
2015-Mar-19 07:16N 54°35' W 001°15'9 5.3
2015-Mar-19 05:33N 54°44' W 001°09'2 0.4
2015-Mar-19 00:33N 54°42' W 001°07'2 1.8
2015-Mar-18 23:32N 54°44' W 001°08'0 0.0
2015-Mar-18 22:32N 54°44' W 001°08'0 0.0
2015-Mar-18 21:32N 54°44' W 001°09'0 0.0
2015-Mar-18 20:32N 54°44' W 001°09'0 0.0
2015-Mar-18 19:32N 54°44' W 001°09'  

Dump ship's entire track history